sensor_id;sensor_type;location;lat;lon;timestamp;P1;durP1;ratioP1;P2;durP2;ratioP2
3735;SDS011;1883;48.202;16.310;2023-08-17T00:02:26;20.27;;;11.30;;
3735;SDS011;1883;48.202;16.310;2023-08-17T00:23:03;33.60;;;17.33;;
3735;SDS011;1883;48.202;16.310;2023-08-17T00:25:31;29.77;;;17.47;;
3735;SDS011;1883;48.202;16.310;2023-08-17T00:27:58;37.20;;;19.27;;
3735;SDS011;1883;48.202;16.310;2023-08-17T00:30:25;33.67;;;21.23;;
3735;SDS011;1883;48.202;16.310;2023-08-17T00:32:52;40.57;;;18.07;;
3735;SDS011;1883;48.202;16.310;2023-08-17T00:35:21;30.03;;;17.23;;
3735;SDS011;1883;48.202;16.310;2023-08-17T00:37:48;31.37;;;17.27;;
3735;SDS011;1883;48.202;16.310;2023-08-17T00:40:17;32.77;;;18.20;;
3735;SDS011;1883;48.202;16.310;2023-08-17T00:45:20;35.47;;;19.60;;
3735;SDS011;1883;48.202;16.310;2023-08-17T00:47:49;36.37;;;20.30;;
3735;SDS011;1883;48.202;16.310;2023-08-17T00:50:18;37.30;;;19.03;;
3735;SDS011;1883;48.202;16.310;2023-08-17T00:52:45;45.63;;;18.60;;
3735;SDS011;1883;48.202;16.310;2023-08-17T00:55:12;38.60;;;20.77;;
3735;SDS011;1883;48.202;16.310;2023-08-17T00:57:41;40.33;;;21.47;;
3735;SDS011;1883;48.202;16.310;2023-08-17T01:00:08;37.20;;;19.90;;
3735;SDS011;1883;48.202;16.310;2023-08-17T01:02:38;34.63;;;22.03;;
3735;SDS011;1883;48.202;16.310;2023-08-17T01:05:08;45.90;;;21.93;;
3735;SDS011;1883;48.202;16.310;2023-08-17T01:07:35;44.30;;;24.63;;
3735;SDS011;1883;48.202;16.310;2023-08-17T01:10:03;44.77;;;22.93;;
3735;SDS011;1883;48.202;16.310;2023-08-17T01:12:35;41.87;;;22.43;;
3735;SDS011;1883;48.202;16.310;2023-08-17T01:15:10;38.90;;;22.70;;
3735;SDS011;1883;48.202;16.310;2023-08-17T01:17:43;46.07;;;22.37;;
3735;SDS011;1883;48.202;16.310;2023-08-17T01:20:15;42.20;;;22.40;;
3735;SDS011;1883;48.202;16.310;2023-08-17T01:22:45;41.20;;;21.10;;
3735;SDS011;1883;48.202;16.310;2023-08-17T01:25:17;49.53;;;24.07;;
3735;SDS011;1883;48.202;16.310;2023-08-17T01:27:44;36.20;;;21.90;;
3735;SDS011;1883;48.202;16.310;2023-08-17T01:30:12;41.67;;;21.83;;
3735;SDS011;1883;48.202;16.310;2023-08-17T01:32:44;43.57;;;20.93;;
3735;SDS011;1883;48.202;16.310;2023-08-17T01:35:18;37.53;;;21.80;;
3735;SDS011;1883;48.202;16.310;2023-08-17T01:37:53;37.53;;;22.47;;
3735;SDS011;1883;48.202;16.310;2023-08-17T01:40:26;52.30;;;25.90;;
3735;SDS011;1883;48.202;16.310;2023-08-17T01:42:54;46.27;;;27.03;;
3735;SDS011;1883;48.202;16.310;2023-08-17T01:45:23;46.20;;;26.60;;
3735;SDS011;1883;48.202;16.310;2023-08-17T01:47:50;55.67;;;26.17;;
3735;SDS011;1883;48.202;16.310;2023-08-17T01:50:17;53.63;;;24.00;;
3735;SDS011;1883;48.202;16.310;2023-08-17T01:52:46;46.20;;;24.10;;
3735;SDS011;1883;48.202;16.310;2023-08-17T01:55:15;37.03;;;21.40;;
3735;SDS011;1883;48.202;16.310;2023-08-17T01:57:43;46.97;;;22.23;;
3735;SDS011;1883;48.202;16.310;2023-08-17T02:00:11;40.30;;;23.20;;
3735;SDS011;1883;48.202;16.310;2023-08-17T02:02:39;41.07;;;23.27;;
3735;SDS011;1883;48.202;16.310;2023-08-17T02:05:06;40.00;;;22.73;;
3735;SDS011;1883;48.202;16.310;2023-08-17T02:07:34;47.13;;;21.37;;
3735;SDS011;1883;48.202;16.310;2023-08-17T02:10:02;44.37;;;21.57;;
3735;SDS011;1883;48.202;16.310;2023-08-17T02:12:29;38.30;;;20.80;;
3735;SDS011;1883;48.202;16.310;2023-08-17T02:22:39;35.70;;;18.90;;
3735;SDS011;1883;48.202;16.310;2023-08-17T02:25:06;33.87;;;19.33;;
3735;SDS011;1883;48.202;16.310;2023-08-17T02:27:34;36.30;;;18.83;;
3735;SDS011;1883;48.202;16.310;2023-08-17T02:30:06;33.47;;;17.80;;
3735;SDS011;1883;48.202;16.310;2023-08-17T02:32:35;37.67;;;18.60;;
3735;SDS011;1883;48.202;16.310;2023-08-17T02:35:04;37.27;;;17.77;;
3735;SDS011;1883;48.202;16.310;2023-08-17T02:37:32;31.70;;;19.30;;
3735;SDS011;1883;48.202;16.310;2023-08-17T02:40:01;35.60;;;18.77;;
3735;SDS011;1883;48.202;16.310;2023-08-17T02:42:29;45.53;;;20.00;;
3735;SDS011;1883;48.202;16.310;2023-08-17T02:44:56;44.03;;;21.20;;
3735;SDS011;1883;48.202;16.310;2023-08-17T02:47:24;37.50;;;20.70;;
3735;SDS011;1883;48.202;16.310;2023-08-17T02:49:51;33.80;;;19.07;;
3735;SDS011;1883;48.202;16.310;2023-08-17T02:52:18;33.90;;;20.03;;
3735;SDS011;1883;48.202;16.310;2023-08-17T02:54:45;36.33;;;20.57;;
3735;SDS011;1883;48.202;16.310;2023-08-17T02:57:14;35.40;;;19.47;;
3735;SDS011;1883;48.202;16.310;2023-08-17T03:02:16;33.43;;;18.73;;
3735;SDS011;1883;48.202;16.310;2023-08-17T03:07:19;34.97;;;19.10;;
3735;SDS011;1883;48.202;16.310;2023-08-17T03:09:47;36.50;;;18.97;;
3735;SDS011;1883;48.202;16.310;2023-08-17T03:17:27;39.13;;;20.23;;
3735;SDS011;1883;48.202;16.310;2023-08-17T03:19:54;34.60;;;18.40;;
3735;SDS011;1883;48.202;16.310;2023-08-17T03:22:24;39.53;;;20.47;;
3735;SDS011;1883;48.202;16.310;2023-08-17T03:24:51;41.37;;;20.97;;
3735;SDS011;1883;48.202;16.310;2023-08-17T03:27:21;34.00;;;18.70;;
3735;SDS011;1883;48.202;16.310;2023-08-17T03:29:49;33.63;;;19.47;;
3735;SDS011;1883;48.202;16.310;2023-08-17T03:32:16;34.47;;;18.60;;
3735;SDS011;1883;48.202;16.310;2023-08-17T03:47:43;44.93;;;23.93;;
3735;SDS011;1883;48.202;16.310;2023-08-17T03:50:11;51.20;;;25.77;;
